Time;durP1;ratioP1;P1;durP2;ratioP2;P2;SDS_P1;SDS_P2;PMS_P1;PMS_P2;Temp;Humidity;BMP_temperature;BMP_pressure;BME280_temperature;BME280_humidity;BME280_pressure;Samples;Min_cycle;Max_cycle;Signal;HPM_P1;HPM_P2
2023/04/09 00:00:16;;;;;;;31.90;14.75;;;4.70;99.90;;;;;;6180649;23;20467;-81
2023/04/09 00:02:44;;;;;;;33.75;15.45;;;4.60;99.90;;;;;;6180909;23;20019;-81
2023/04/09 00:05:11;;;;;;;31.17;15.32;;;4.60;99.90;;;;;;6182435;23;20028;-81
2023/04/09 00:07:38;;;;;;;30.30;14.48;;;4.60;99.90;;;;;;6181987;23;20094;-81
2023/04/09 00:10:06;;;;;;;27.30;13.30;;;4.70;99.90;;;;;;6181662;23;20355;-81
2023/04/09 00:12:33;;;;;;;28.98;12.65;;;4.60;99.90;;;;;;6208808;23;20020;-81
2023/04/09 00:15:00;;;;;;;26.92;13.85;;;4.60;99.90;;;;;;6182076;23;20031;-81
2023/04/09 00:17:27;;;;;;;27.17;13.63;;;4.60;99.90;;;;;;6182069;23;20016;-81
2023/04/09 00:19:55;;;;;;;27.00;12.20;;;4.60;99.90;;;;;;6184633;23;20032;-81
2023/04/09 00:22:22;;;;;;;29.15;13.75;;;4.60;99.90;;;;;;6204622;23;20514;-81
2023/04/09 00:24:49;;;;;;;27.17;12.93;;;4.60;99.90;;;;;;6181284;23;20024;-81
2023/04/09 00:27:16;;;;;;;26.92;12.40;;;4.70;99.90;;;;;;6206867;23;20024;-81
2023/04/09 00:29:44;;;;;;;27.42;13.18;;;4.60;99.90;;;;;;6210989;23;20019;-81
2023/04/09 00:32:12;;;;;;;28.38;12.07;;;4.60;99.90;;;;;;6182617;23;20028;-81
2023/04/09 00:34:39;;;;;;;27.13;13.05;;;4.60;99.90;;;;;;6183417;23;20028;-81
2023/04/09 00:37:06;;;;;;;27.25;12.65;;;5.30;99.90;;;;;;6181887;23;20024;-81
2023/04/09 00:39:33;;;;;;;30.75;13.75;;;4.60;99.90;;;;;;6180879;23;20051;-81
2023/04/09 00:42:01;;;;;;;26.65;12.90;;;4.50;99.90;;;;;;6180901;23;20028;-81
2023/04/09 00:44:29;;;;;;;29.17;13.50;;;4.60;99.90;;;;;;6181040;23;20035;-81
2023/04/09 00:46:59;;;;;;;26.38;13.13;;;4.60;99.90;;;;;;6181288;23;20024;-81
2023/04/09 00:49:26;;;;;;;26.35;12.90;;;4.60;99.90;;;;;;6180118;23;20381;-80
2023/04/09 00:51:54;;;;;;;27.70;14.05;;;4.60;99.90;;;;;;6181617;23;20542;-81
2023/04/09 00:54:21;;;;;;;25.48;12.38;;;4.60;99.90;;;;;;6181446;23;20090;-81
2023/04/09 00:56:48;;;;;;;28.92;13.15;;;4.60;99.90;;;;;;6182528;23;20106;-81
2023/04/09 00:59:15;;;;;;;28.40;12.40;;;4.60;99.90;;;;;;6183125;23;20028;-81
2023/04/09 01:01:42;;;;;;;27.10;12.85;;;4.60;99.90;;;;;;6187567;23;20030;-81
2023/04/09 01:04:10;;;;;;;29.10;13.35;;;4.60;99.90;;;;;;6183855;23;20139;-81
2023/04/09 01:06:47;;;;;;;25.25;12.32;;;4.60;99.90;;;;;;6205380;23;20054;-81
2023/04/09 01:09:22;;;;;;;26.75;12.43;;;4.60;99.90;;;;;;6182157;23;20020;-81
2023/04/09 01:12:11;;;;;;;24.63;12.40;;;4.60;99.90;;;;;;6184558;23;20024;-81
2023/04/09 01:14:49;;;;;;;27.40;13.63;;;4.50;99.90;;;;;;6191926;23;20440;-81
2023/04/09 01:17:23;;;;;;;29.63;12.65;;;4.60;99.90;;;;;;6187047;23;20024;-81
2023/04/09 01:20:04;;;;;;;24.25;11.93;;;4.60;99.90;;;;;;6182998;23;20035;-81
2023/04/09 01:23:13;;;;;;;28.73;13.70;;;4.60;99.90;;;;;;6186995;23;20032;-81
2023/04/09 01:26:05;;;;;;;27.35;13.32;;;4.60;99.90;;;;;;6169172;23;20123;-81
2023/04/09 01:28:43;;;;;;;33.47;14.05;;;4.50;99.90;;;;;;6185265;23;20038;-81
2023/04/09 01:31:20;;;;;;;28.73;13.60;;;4.50;99.90;;;;;;6208381;23;20489;-81
2023/04/09 01:33:47;;;;;;;28.90;12.77;;;4.50;99.90;;;;;;6182963;23;20027;-81
2023/04/09 01:36:15;;;;;;;29.90;12.50;;;4.50;99.90;;;;;;6177836;23;20024;-81
2023/04/09 01:38:44;;;;;;;27.90;12.85;;;4.50;99.90;;;;;;6178479;23;20020;-81
2023/04/09 01:41:16;;;;;;;27.17;12.60;;;4.50;99.90;;;;;;6178648;23;20032;-81
2023/04/09 01:43:45;;;;;;;28.58;12.90;;;4.50;99.90;;;;;;6203100;23;20046;-81
2023/04/09 01:46:12;;;;;;;28.17;12.65;;;4.50;99.90;;;;;;6180621;23;20450;-81
2023/04/09 01:48:39;;;;;;;30.50;13.93;;;4.50;99.90;;;;;;6177143;23;20521;-81
2023/04/09 01:51:07;;;;;;;29.08;13.35;;;4.50;99.90;;;;;;6178506;23;20020;-81
2023/04/09 01:53:35;;;;;;;29.70;13.68;;;4.50;99.90;;;;;;6182478;23;20031;-81
2023/04/09 01:56:02;;;;;;;29.88;13.60;;;4.50;99.90;;;;;;6178024;23;20031;-81
2023/04/09 01:58:32;;;;;;;34.95;14.65;;;4.40;99.90;;;;;;6177927;23;20024;-81
2023/04/09 02:01:11;;;;;;;28.65;14.25;;;4.40;99.90;;;;;;6176794;23;20055;-81
2023/04/09 02:03:45;;;;;;;29.88;13.70;;;4.40;99.90;;;;;;6178142;23;20075;-81
2023/04/09 02:06:19;;;;;;;27.15;12.93;;;4.40;99.90;;;;;;6178053;23;20044;-81
2023/04/09 02:08:49;;;;;;;30.65;13.85;;;4.40;99.90;;;;;;6177807;23;20020;-81
2023/04/09 02:11:20;;;;;;;29.80;12.85;;;4.40;99.90;;;;;;6180561;23;20415;-81
2023/04/09 02:13:52;;;;;;;30.75;14.13;;;4.40;99.90;;;;;;6207645;23;20024;-81
2023/04/09 02:16:20;;;;;;;30.98;13.23;;;4.40;99.90;;;;;;6179847;23;20028;-81
2023/04/09 02:19:00;;;;;;;29.65;13.80;;;4.30;99.90;;;;;;6180141;23;20115;-81
2023/04/09 02:21:28;;;;;;;31.63;14.02;;;4.30;99.90;;;;;;6178556;23;20024;-81
2023/04/09 02:23:55;;;;;;;29.38;13.30;;;4.30;99.90;;;;;;6181739;23;20020;-81
2023/04/09 02:26:23;;;;;;;26.83;13.43;;;4.30;99.90;;;;;;6177514;23;20024;-81
2023/04/09 02:28:50;;;;;;;27.92;12.63;;;4.40;99.90;;;;;;6177206;23;20059;-81
2023/04/09 02:31:18;;;;;;;29.63;13.38;;;4.40;99.90;;;;;;6176522;23;20020;-81
2023/04/09 02:33:45;;;;;;;32.40;14.45;;;4.40;99.90;;;;;;6180229;23;20052;-81
2023/04/09 02:36:12;;;;;;;29.80;13.88;;;4.50;99.90;;;;;;6182798;23;20408;-81
2023/04/09 02:38:41;;;;;;;31.38;13.85;;;5.30;99.90;;;;;;6181155;23;20025;-81
2023/04/09 02:41:09;;;;;;;28.67;13.15;;;4.50;99.90;;;;;;6183548;23;20024;-81
2023/04/09 02:43:36;;;;;;;29.85;13.48;;;4.50;99.90;;;;;;6175305;23;20359;-81
2023/04/09 02:46:04;;;;;;;33.72;14.27;;;4.40;99.90;;;;;;6176739;23;20020;-81
2023/04/09 02:48:33;;;;;;;32.25;15.35;;;4.40;99.90;;;;;;6203510;23;20063;-81
2023/04/09 02:51:00;;;;;;;31.58;14.50;;;4.40;99.90;;;;;;6176052;23;20496;-81
2023/04/09 02:53:27;;;;;;;31.75;14.57;;;4.40;99.90;;;;;;6177391;23;20024;-81
2023/04/09 02:55:54;;;;;;;34.72;14.60;;;4.40;99.90;;;;;;6202669;23;20051;-81
2023/04/09 02:58:22;;;;;;;31.45;13.88;;;4.40;99.90;;;;;;6177115;23;20590;-81
2023/04/09 03:00:49;;;;;;;35.08;14.13;;;4.40;99.90;;;;;;6176641;23;20070;-81
2023/04/09 03:03:16;;;;;;;35.92;14.18;;;4.40;99.90;;;;;;6177655;23;20336;-81
2023/04/09 03:05:43;;;;;;;37.63;16.25;;;4.40;99.90;;;;;;6177318;23;20086;-81
2023/04/09 03:08:10;;;;;;;36.67;16.40;;;4.40;99.90;;;;;;6180636;23;20108;-81
2023/04/09 03:10:37;;;;;;;34.85;15.32;;;4.40;99.90;;;;;;6177202;23;20017;-81
2023/04/09 03:13:05;;;;;;;35.60;15.60;;;4.40;99.90;;;;;;6181009;23;20051;-81
2023/04/09 03:15:32;;;;;;;33.90;14.40;;;4.40;99.90;;;;;;6177787;23;20025;-81
2023/04/09 03:17:59;;;;;;;31.13;13.23;;;4.40;99.90;;;;;;6176069;23;20052;-81
2023/04/09 03:20:26;;;;;;;34.53;15.20;;;4.40;99.90;;;;;;6175841;23;20433;-81
2023/04/09 03:22:53;;;;;;;38.20;16.42;;;4.40;99.90;;;;;;6177178;23;20033;-81
2023/04/09 03:25:32;;;;;;;50.40;21.90;;;4.50;99.90;;;;;;6201815;23;20024;-81
2023/04/09 03:28:07;;;;;;;42.95;19.35;;;4.40;99.90;;;;;;6177659;23;20059;-81
2023/04/09 03:30:40;;;;;;;;;;;4.40;99.90;;;;;;6202440;23;20099;-81
2023/04/09 03:33:08;;;;;;;39.00;17.63;;;4.50;99.90;;;;;;6203378;23;20392;-81
2023/04/09 03:35:46;;;;;;;34.95;15.85;;;4.40;99.90;;;;;;6178257;23;20032;-81
2023/04/09 03:38:14;;;;;;;31.10;15.40;;;4.40;99.90;;;;;;6176012;23;20032;-81
2023/04/09 03:40:41;;;;;;;34.58;15.10;;;4.40;99.90;;;;;;6179422;23;20021;-81
2023/04/09 03:43:09;;;;;;;30.35;13.70;;;4.40;99.90;;;;;;6180005;23;20048;-81
2023/04/09 03:45:39;;;;;;;39.08;16.65;;;4.40;99.90;;;;;;6177569;23;20024;-81
2023/04/09 03:48:18;;;;;;;34.50;15.82;;;4.40;99.90;;;;;;6180324;23;20044;-81
2023/04/09 03:50:45;;;;;;;32.92;16.05;;;4.40;99.90;;;;;;6176790;23;20654;-81
2023/04/09 03:53:16;;;;;;;36.70;17.25;;;4.40;99.90;;;;;;6176598;23;20070;-81
2023/04/09 03:55:45;;;;;;;33.53;15.48;;;4.30;99.90;;;;;;6180036;23;20032;-81
2023/04/09 03:58:19;;;;;;;36.33;15.75;;;4.30;99.90;;;;;;6178330;23;20338;-81
2023/04/09 04:00:47;;;;;;;33.97;14.93;;;4.30;99.90;;;;;;6176247;23;20454;-81
2023/04/09 04:03:31;;;;;;;33.50;15.20;;;4.30;99.90;;;;;;6180455;23;20103;-81
2023/04/09 04:06:08;;;;;;;32.03;14.65;;;4.30;99.90;;;;;;6177689;23;20023;-81
2023/04/09 04:08:52;;;;;;;30.38;14.80;;;4.40;99.90;;;;;;6179675;23;20479;-81
2023/04/09 04:11:25;;;;;;;32.78;15.07;;;4.40;99.90;;;;;;6177340;23;20024;-81
2023/04/09 04:13:54;;;;;;;37.45;15.15;;;4.40;99.90;;;;;;6176950;23;20055;-81
2023/04/09 04:16:23;;;;;;;31.38;13.70;;;4.40;99.90;;;;;;6176372;23;20024;-81
2023/04/09 04:18:51;;;;;;;28.52;13.68;;;4.40;99.90;;;;;;6176489;23;20075;-81
2023/04/09 04:21:19;;;;;;;31.70;14.23;;;4.40;99.90;;;;;;6204048;23;20020;-81
2023/04/09 04:23:54;;;;;;;32.67;13.75;;;4.40;99.90;;;;;;6178260;23;20693;-81
2023/04/09 04:26:25;;;;;;;34.63;14.48;;;4.50;99.90;;;;;;6180008;23;20017;-82
2023/04/09 04:28:52;;;;;;;29.98;14.02;;;4.40;99.90;;;;;;6176516;23;20067;-82
2023/04/09 04:31:52;;;;;;;26.50;12.05;;;4.40;99.90;;;;;;6155195;23;20024;-81
2023/04/09 04:34:22;;;;;;;29.83;14.07;;;4.50;99.90;;;;;;6182916;23;20058;-81
2023/04/09 04:36:57;;;;;;;33.85;15.20;;;4.50;99.90;;;;;;6182700;23;20031;-81
2023/04/09 04:39:30;;;;;;;35.78;15.88;;;4.50;99.90;;;;;;6183575;23;20024;-80
2023/04/09 04:42:10;;;;;;;32.22;15.23;;;4.50;99.90;;;;;;6194549;23;20020;-80
2023/04/09 04:44:37;;;;;;;30.02;14.55;;;4.50;99.90;;;;;;6185795;23;20070;-80
2023/04/09 04:47:31;;;;;;;;;;;4.50;99.90;;;;;;6187107;23;20040;-80
2023/04/09 04:49:58;;;;;;;29.50;14.23;;;4.60;99.90;;;;;;6179565;23;20231;-80
2023/04/09 04:52:26;;;;;;;31.90;15.43;;;4.60;99.90;;;;;;6208411;23;20467;-80
2023/04/09 04:54:53;;;;;;;30.60;14.20;;;4.60;99.90;;;;;;6207795;23;20028;-80
2023/04/09 04:57:22;;;;;;;31.83;14.68;;;4.60;99.90;;;;;;6187105;23;20078;-80
2023/04/09 04:59:50;;;;;;;28.90;13.65;;;4.60;99.90;;;;;;6182053;23;20448;-80
2023/04/09 05:02:18;;;;;;;33.22;14.05;;;4.70;99.90;;;;;;6209248;23;20355;-81
2023/04/09 05:05:04;;;;;;;31.77;14.45;;;4.70;99.90;;;;;;6215466;23;20066;-81
2023/04/09 05:07:40;;;;;;;33.47;15.13;;;4.70;99.90;;;;;;6184096;23;20079;-81
2023/04/09 05:10:08;;;;;;;32.38;14.02;;;4.70;99.90;;;;;;6183547;23;20058;-81
2023/04/09 05:12:39;;;;;;;27.52;12.57;;;4.70;99.90;;;;;;6207536;23;20099;-81
2023/04/09 05:15:08;;;;;;;27.30;12.95;;;4.70;99.90;;;;;;6183155;23;20031;-81
2023/04/09 05:17:36;;;;;;;29.75;13.85;;;4.80;99.90;;;;;;6185063;23;20024;-81
2023/04/09 05:20:05;;;;;;;26.70;13.65;;;4.80;99.90;;;;;;6187919;23;20020;-81
2023/04/09 05:22:43;;;;;;;27.50;12.95;;;4.80;99.90;;;;;;6186148;23;20054;-81
2023/04/09 05:25:10;;;;;;;26.92;12.82;;;4.80;99.90;;;;;;6184936;23;20549;-80
2023/04/09 05:27:40;;;;;;;27.30;12.65;;;4.80;99.90;;;;;;6182887;23;20028;-81
2023/04/09 05:30:08;;;;;;;28.30;12.52;;;4.80;99.90;;;;;;6187068;23;20028;-81
2023/04/09 05:32:36;;;;;;;28.90;12.73;;;4.80;99.90;;;;;;6182831;23;20076;-81
2023/04/09 05:35:04;;;;;;;25.70;12.52;;;4.90;99.90;;;;;;6178307;23;20329;-81
2023/04/09 05:37:37;;;;;;;26.38;12.13;;;4.90;99.90;;;;;;6182682;23;20024;-81
2023/04/09 05:40:05;;;;;;;26.10;12.43;;;5.00;99.90;;;;;;6158074;23;20020;-81
2023/04/09 05:42:33;;;;;;;25.17;12.00;;;5.00;99.90;;;;;;6150329;23;20127;-81
2023/04/09 05:45:09;;;;;;;28.85;11.90;;;5.00;99.90;;;;;;6150513;23;20102;-81
2023/04/09 05:47:44;;;;;;;22.30;11.18;;;5.10;99.90;;;;;;6199105;23;20032;-81
2023/04/09 05:50:17;;;;;;;24.20;12.13;;;5.10;99.90;;;;;;6180607;23;20036;-81
2023/04/09 05:52:44;;;;;;;26.10;11.75;;;5.10;99.90;;;;;;6155034;23;20031;-81
2023/04/09 05:55:13;;;;;;;25.15;12.10;;;5.10;99.90;;;;;;6157336;23;20531;-80
2023/04/09 05:57:47;;;;;;;27.02;12.35;;;5.10;99.90;;;;;;6156874;23;20035;-81
2023/04/09 06:00:17;;;;;;;27.88;13.02;;;5.10;99.90;;;;;;6175638;23;20024;-81
2023/04/09 06:02:45;;;;;;;24.40;12.07;;;5.10;99.90;;;;;;6155898;23;20035;-81
2023/04/09 06:05:12;;;;;;;24.58;12.30;;;5.10;99.90;;;;;;6180577;23;20028;-81
2023/04/09 06:07:40;;;;;;;21.45;11.43;;;5.10;99.90;;;;;;6181208;23;20024;-81
2023/04/09 06:10:07;;;;;;;26.33;11.82;;;5.20;99.90;;;;;;6151878;23;20035;-81
2023/04/09 06:12:35;;;;;;;22.77;11.82;;;5.20;99.90;;;;;;6178087;23;20567;-81
2023/04/09 06:15:06;;;;;;;25.98;12.30;;;5.30;99.90;;;;;;6176370;23;20474;-81
2023/04/09 06:17:33;;;;;;;24.60;12.48;;;5.30;99.90;;;;;;6154157;23;20074;-81
2023/04/09 06:20:00;;;;;;;26.50;13.07;;;5.30;99.90;;;;;;6153577;23;20406;-81
2023/04/09 06:22:27;;;;;;;33.00;15.32;;;5.40;99.90;;;;;;6152311;23;20028;-81
2023/04/09 06:24:55;;;;;;;30.55;15.25;;;5.40;99.90;;;;;;6178030;23;20542;-81
2023/04/09 06:27:22;;;;;;;26.67;12.95;;;5.40;99.90;;;;;;6151700;23;20021;-81
2023/04/09 06:29:49;;;;;;;23.65;11.40;;;5.50;99.90;;;;;;6153293;23;20020;-81
2023/04/09 06:32:16;;;;;;;23.52;11.00;;;5.50;99.90;;;;;;6155756;23;20023;-81
2023/04/09 06:34:44;;;;;;;23.30;10.93;;;5.60;99.90;;;;;;6161224;23;20503;-81
2023/04/09 06:37:11;;;;;;;20.58;9.95;;;5.60;99.90;;;;;;6187245;23;20455;-81
2023/04/09 06:39:40;;;;;;;24.50;11.45;;;5.80;99.90;;;;;;6183513;23;20047;-81
2023/04/09 06:42:20;;;;;;;19.73;10.20;;;5.70;99.90;;;;;;6207361;23;20424;-81
2023/04/09 06:44:54;;;;;;;18.85;9.40;;;5.60;99.90;;;;;;6185982;23;20083;-81
2023/04/09 06:47:21;;;;;;;18.63;8.52;;;5.70;99.90;;;;;;6209310;23;20292;-81
2023/04/09 06:49:48;;;;;;;18.15;9.18;;;5.70;99.90;;;;;;6180349;23;20093;-81
2023/04/09 06:52:15;;;;;;;20.35;10.00;;;5.80;99.90;;;;;;6182174;23;20465;-81
2023/04/09 06:54:42;;;;;;;18.08;8.40;;;5.90;99.90;;;;;;6183416;23;20135;-81
2023/04/09 06:57:10;;;;;;;12.27;7.05;;;5.90;99.90;;;;;;6204745;23;20187;-81
2023/04/09 06:59:37;;;;;;;14.07;6.43;;;6.00;99.90;;;;;;6184422;23;20016;-81
2023/04/09 07:02:05;;;;;;;13.57;6.80;;;6.00;99.90;;;;;;6184709;23;20024;-81
2023/04/09 07:04:32;;;;;;;13.80;6.22;;;6.10;99.90;;;;;;6182366;23;20042;-82
2023/04/09 07:07:00;;;;;;;12.73;6.70;;;6.10;99.90;;;;;;6204655;23;20024;-81
2023/04/09 07:09:27;;;;;;;14.65;7.13;;;6.20;99.90;;;;;;6184398;23;20062;-82
2023/04/09 07:11:54;;;;;;;15.38;7.43;;;6.30;99.90;;;;;;6184832;23;20098;-81
2023/04/09 07:14:21;;;;;;;16.70;7.75;;;6.40;99.90;;;;;;6178577;23;20023;-81
2023/04/09 07:16:48;;;;;;;17.75;7.95;;;6.40;99.90;;;;;;6178078;23;20525;-81
2023/04/09 07:19:15;;;;;;;15.93;7.80;;;5.70;99.90;;;;;;6184548;23;20426;-81
2023/04/09 07:21:43;;;;;;;16.05;8.50;;;6.50;99.90;;;;;;6179772;23;20034;-81
2023/04/09 07:24:10;;;;;;;15.38;7.55;;;6.60;99.90;;;;;;6183659;23;20047;-81
2023/04/09 07:26:37;;;;;;;14.98;6.97;;;6.60;99.90;;;;;;6177276;23;20016;-81
2023/04/09 07:29:04;;;;;;;18.23;7.57;;;6.70;99.90;;;;;;6179661;23;20028;-82
2023/04/09 07:31:33;;;;;;;15.65;8.18;;;6.80;99.90;;;;;;6187121;23;20558;-82
2023/04/09 07:34:02;;;;;;;16.38;8.05;;;6.80;99.90;;;;;;6179186;23;20455;-82
2023/04/09 07:36:30;;;;;;;17.83;8.05;;;6.80;99.90;;;;;;6173094;23;20029;-82
2023/04/09 07:38:57;;;;;;;19.80;9.82;;;6.80;99.90;;;;;;6175958;23;20048;-82
2023/04/09 07:41:25;;;;;;;16.67;8.45;;;6.90;99.90;;;;;;6175018;23;20028;-82
2023/04/09 07:43:52;;;;;;;15.05;8.23;;;6.90;99.90;;;;;;6172317;23;20334;-82
2023/04/09 07:46:20;;;;;;;16.20;8.13;;;7.10;99.90;;;;;;6177733;23;20052;-81
2023/04/09 07:48:49;;;;;;;16.08;7.57;;;7.20;99.90;;;;;;6176730;23;20027;-82
2023/04/09 07:51:22;;;;;;;15.98;7.75;;;7.10;99.90;;;;;;6174656;23;20404;-81
2023/04/09 07:53:49;;;;;;;16.65;8.27;;;7.50;99.90;;;;;;6147026;23;20048;-81
2023/04/09 07:56:16;;;;;;;14.18;7.60;;;7.50;99.90;;;;;;6171670;23;20072;-81
2023/04/09 07:58:44;;;;;;;14.27;7.68;;;7.40;99.90;;;;;;6171547;23;20476;-82
2023/04/09 08:01:11;;;;;;;12.95;6.75;;;7.50;99.90;;;;;;6171226;23;20551;-82
2023/04/09 08:03:39;;;;;;;13.77;7.22;;;7.60;99.90;;;;;;6169867;23;20882;-81
2023/04/09 08:06:07;;;;;;;16.05;7.57;;;7.60;99.90;;;;;;6172736;23;20368;-82
2023/04/09 08:08:37;;;;;;;13.55;7.28;;;7.70;99.90;;;;;;6173208;23;20119;-82
2023/04/09 08:11:05;;;;;;;13.00;6.18;;;7.50;99.90;;;;;;6146740;23;20030;-82
2023/04/09 08:13:32;;;;;;;12.82;6.70;;;7.70;99.90;;;;;;6170196;23;20132;-82
2023/04/09 08:16:01;;;;;;;12.88;6.80;;;7.90;99.90;;;;;;6173576;23;20099;-81
2023/04/09 08:18:28;;;;;;;12.27;7.07;;;8.00;99.90;;;;;;6144855;23;20480;-81
2023/04/09 08:20:56;;;;;;;15.25;8.45;;;8.20;99.90;;;;;;6171191;23;20099;-82
2023/04/09 08:23:23;;;;;;;11.27;6.88;;;8.20;99.90;;;;;;6170994;23;20024;-81
2023/04/09 08:25:51;;;;;;;13.77;6.88;;;8.10;99.90;;;;;;6179510;23;20791;-81
2023/04/09 08:28:19;;;;;;;11.77;5.80;;;8.10;99.90;;;;;;6176210;23;20017;-81
2023/04/09 08:30:47;;;;;;;13.02;7.20;;;8.10;99.90;;;;;;6172068;23;20455;-81
2023/04/09 08:33:15;;;;;;;15.50;7.75;;;8.10;99.90;;;;;;6199895;23;20407;-80
2023/04/09 08:35:42;;;;;;;11.73;6.15;;;8.20;99.90;;;;;;6178220;23;20080;-81
2023/04/09 08:38:09;;;;;;;15.02;6.93;;;8.30;99.90;;;;;;6184279;23;20023;-82
2023/04/09 08:40:37;;;;;;;12.70;6.95;;;8.20;99.90;;;;;;6189261;23;20028;-81
2023/04/09 08:43:05;;;;;;;10.93;5.50;;;8.30;99.90;;;;;;6206914;23;20028;-81
2023/04/09 08:45:33;;;;;;;12.02;5.90;;;8.50;99.90;;;;;;6186814;23;20020;-80
2023/04/09 08:48:02;;;;;;;9.52;5.15;;;8.60;99.90;;;;;;6180083;23;20016;-81
2023/04/09 08:50:33;;;;;;;12.05;6.57;;;8.80;99.90;;;;;;6179279;23;20411;-81
2023/04/09 08:53:06;;;;;;;13.07;5.97;;;8.80;99.90;;;;;;6200388;23;20428;-81
2023/04/09 08:55:34;;;;;;;14.02;6.90;;;8.80;99.90;;;;;;6205521;23;20028;-83
2023/04/09 08:58:06;;;;;;;9.27;5.28;;;8.90;99.90;;;;;;6177803;23;20070;-82
2023/04/09 09:00:34;;;;;;;9.60;5.15;;;8.80;98.50;;;;;;6170426;23;20223;-80
2023/04/09 09:03:07;;;;;;;10.40;5.28;;;8.90;99.90;;;;;;6169387;23;20036;-80
2023/04/09 09:05:44;;;;;;;11.30;6.13;;;8.90;99.90;;;;;;6167640;23;20020;-80
2023/04/09 09:08:21;;;;;;;11.45;5.78;;;9.00;99.90;;;;;;6200561;23;20028;-80
2023/04/09 09:10:49;;;;;;;12.95;7.43;;;8.90;98.10;;;;;;6197444;23;20016;-81
2023/04/09 09:13:16;;;;;;;22.75;14.57;;;9.00;97.70;;;;;;6181052;23;20023;-81
2023/04/09 09:15:45;;;;;;;10.77;5.75;;;8.80;96.30;;;;;;6200156;23;20024;-81
2023/04/09 09:18:12;;;;;;;12.38;6.20;;;8.80;96.70;;;;;;6202759;23;20142;-81
2023/04/09 09:20:39;;;;;;;10.52;5.15;;;8.90;98.80;;;;;;6198070;23;20024;-81
2023/04/09 09:23:07;;;;;;;11.20;6.03;;;8.90;97.70;;;;;;6178928;23;20209;-80
2023/04/09 09:25:39;;;;;;;12.88;6.43;;;9.00;98.80;;;;;;6176649;23;20039;-80
2023/04/09 09:28:08;;;;;;;10.18;5.65;;;9.00;98.80;;;;;;6175883;23;20024;-80
2023/04/09 09:30:37;;;;;;;8.75;5.25;;;9.00;97.60;;;;;;6201497;23;20424;-80
2023/04/09 09:33:07;;;;;;;10.75;5.90;;;9.00;98.60;;;;;;6200456;23;20024;-81
2023/04/09 09:35:52;;;;;;;12.20;6.28;;;9.10;98.30;;;;;;6202039;23;20460;-81
2023/04/09 09:38:20;;;;;;;11.00;5.07;;;9.10;98.60;;;;;;6180086;23;20020;-81
2023/04/09 09:40:49;;;;;;;12.73;6.32;;;9.20;98.80;;;;;;6179002;23;20025;-81
2023/04/09 09:43:16;;;;;;;18.25;9.80;;;9.10;97.80;;;;;;6168473;23;20038;-81
2023/04/09 09:45:45;;;;;;;12.57;6.60;;;9.10;97.40;;;;;;6198852;23;20031;-81
2023/04/09 09:48:13;;;;;;;10.77;5.55;;;9.10;97.90;;;;;;6175019;23;20139;-81
2023/04/09 09:50:41;;;;;;;13.18;5.57;;;9.20;97.50;;;;;;6177928;23;20020;-81
2023/04/09 09:53:10;;;;;;;13.30;6.30;;;9.20;96.70;;;;;;6174916;23;20400;-81
2023/04/09 09:55:39;;;;;;;10.80;6.20;;;9.60;97.80;;;;;;6173132;23;20025;-81
2023/04/09 09:58:21;;;;;;;13.23;6.80;;;9.60;95.70;;;;;;6197944;23;20036;-81
2023/04/09 10:00:51;;;;;;;14.32;7.20;;;9.60;95.30;;;;;;6171601;23;20025;-81
2023/04/09 10:03:30;;;;;;;11.18;6.57;;;9.60;94.10;;;;;;6174385;23;20033;-81
2023/04/09 10:06:00;;;;;;;12.55;6.72;;;9.40;95.00;;;;;;6171582;23;20024;-81
2023/04/09 10:08:29;;;;;;;13.13;7.75;;;9.50;94.90;;;;;;6176132;23;20044;-81
2023/04/09 10:10:56;;;;;;;15.10;6.85;;;9.60;95.40;;;;;;6175514;23;20027;-80
2023/04/09 10:13:33;;;;;;;15.77;7.40;;;9.70;96.60;;;;;;6180193;23;20068;-81
2023/04/09 10:16:01;;;;;;;13.38;6.72;;;9.60;95.70;;;;;;6168141;23;20516;-80
2023/04/09 10:18:32;;;;;;;15.18;8.27;;;10.00;95.80;;;;;;6172489;23;20066;-80
2023/04/09 10:21:06;;;;;;;13.35;7.10;;;10.10;95.50;;;;;;6199540;23;20036;-81
2023/04/09 10:23:38;;;;;;;13.55;6.82;;;10.10;93.90;;;;;;6169069;23;20459;-81
2023/04/09 10:26:06;;;;;;;14.57;7.90;;;10.30;94.80;;;;;;6180132;23;20020;-81
2023/04/09 10:28:33;;;;;;;14.18;7.53;;;10.40;93.50;;;;;;6173495;23;20135;-80
2023/04/09 10:31:03;;;;;;;15.40;7.85;;;10.20;93.70;;;;;;6173594;23;20059;-80
2023/04/09 10:33:30;;;;;;;14.00;7.22;;;10.10;94.20;;;;;;6180447;23;20025;-80
2023/04/09 10:36:05;;;;;;;15.23;7.78;;;9.90;94.20;;;;;;6176123;23;20256;-80
2023/04/09 10:38:42;;;;;;;18.33;11.45;;;9.80;94.20;;;;;;6180136;23;20055;-80
2023/04/09 10:41:30;;;;;;;14.43;8.05;;;9.60;94.30;;;;;;6180107;23;20107;-81
2023/04/09 10:43:57;;;;;;;14.85;8.13;;;9.60;95.60;;;;;;6148183;23;20031;-81
2023/04/09 10:46:27;;;;;;;14.23;7.55;;;9.40;94.20;;;;;;6200912;23;20020;-81
2023/04/09 10:49:07;;;;;;;14.02;7.63;;;9.10;94.20;;;;;;6146800;23;20445;-81
2023/04/09 10:51:37;;;;;;;12.25;6.72;;;9.20;95.60;;;;;;6196991;23;20340;-81
2023/04/09 10:54:33;;;;;;;14.18;7.53;;;9.20;95.60;;;;;;6148922;23;20046;-81
2023/04/09 10:57:06;;;;;;;56.00;24.83;;;9.10;95.30;;;;;;6202587;23;20111;-81
2023/04/09 10:59:35;;;;;;;14.13;7.07;;;9.00;95.70;;;;;;6197102;23;20325;-81
2023/04/09 11:02:08;;;;;;;13.48;6.93;;;9.00;96.50;;;;;;6197694;23;20427;-80
2023/04/09 11:04:51;;;;;;;;;;;9.10;97.30;;;;;;6148198;23;20440;-80
2023/04/09 11:07:21;;;;;;;13.88;7.13;;;9.10;97.70;;;;;;6145800;23;20302;-81
2023/04/09 11:09:48;;;;;;;14.82;6.72;;;9.20;98.20;;;;;;6172685;23;20016;-81
2023/04/09 11:12:15;;;;;;;13.55;7.20;;;9.30;97.20;;;;;;6197390;23;20032;-80
2023/04/09 11:14:43;;;;;;;13.57;6.53;;;9.30;97.70;;;;;;6179232;23;20356;-80
2023/04/09 11:17:11;;;;;;;13.75;7.60;;;9.40;97.40;;;;;;6173640;23;20031;-81
2023/04/09 11:19:38;;;;;;;13.07;6.82;;;9.60;97.60;;;;;;6171298;23;20316;-80
2023/04/09 11:22:06;;;;;;;13.80;6.55;;;9.60;97.20;;;;;;6193991;23;20112;-81
2023/04/09 11:24:45;;;;;;;14.20;7.35;;;9.70;96.20;;;;;;6170722;23;20035;-81
2023/04/09 11:27:12;;;;;;;13.13;6.88;;;9.80;96.40;;;;;;6196797;23;20086;-80
2023/04/09 11:29:41;;;;;;;14.80;7.13;;;9.80;95.90;;;;;;6198304;23;20051;-81
2023/04/09 11:32:08;;;;;;;12.13;7.00;;;10.00;95.80;;;;;;6196470;23;20024;-81
2023/04/09 11:34:36;;;;;;;26.00;13.35;;;10.10;95.20;;;;;;6200778;23;20031;-81
2023/04/09 11:37:08;;;;;;;15.57;8.05;;;10.00;94.70;;;;;;6177072;23;20028;-80
2023/04/09 11:39:36;;;;;;;15.07;7.63;;;10.20;94.40;;;;;;6199684;23;20461;-81
2023/04/09 11:42:03;;;;;;;13.68;6.80;;;10.30;95.80;;;;;;6197637;23;20023;-80
2023/04/09 11:44:30;;;;;;;14.05;7.40;;;10.40;95.00;;;;;;6179263;23;20024;-81
2023/04/09 11:46:59;;;;;;;20.15;11.70;;;10.30;93.20;;;;;;6176241;23;20030;-81
2023/04/09 11:49:26;;;;;;;16.13;8.73;;;10.40;94.30;;;;;;6176750;23;20034;-80
2023/04/09 11:51:53;;;;;;;13.75;8.98;;;10.60;94.70;;;;;;6204319;23;20459;-81
2023/04/09 11:54:21;;;;;;;14.38;8.27;;;10.40;92.80;;;;;;6177169;23;20027;-80
2023/04/09 11:56:54;;;;;;;13.35;6.75;;;10.50;93.60;;;;;;6174786;23;20130;-80
2023/04/09 11:59:22;;;;;;;14.73;8.60;;;10.50;92.80;;;;;;6199813;23;20706;-81
2023/04/09 12:01:50;;;;;;;15.93;7.75;;;10.40;92.30;;;;;;6179894;23;20028;-81
2023/04/09 12:04:21;;;;;;;11.10;6.97;;;10.40;93.10;;;;;;6176237;23;20754;-81
2023/04/09 12:06:48;;;;;;;14.57;7.80;;;10.20;93.10;;;;;;6174614;23;20382;-80
2023/04/09 12:09:16;;;;;;;14.27;8.45;;;10.10;92.90;;;;;;6203258;23;20046;-81
2023/04/09 12:11:45;;;;;;;14.07;7.78;;;10.30;92.90;;;;;;6179272;23;20107;-81
2023/04/09 12:14:17;;;;;;;16.65;9.30;;;10.40;92.70;;;;;;6175165;23;20341;-80
2023/04/09 12:16:44;;;;;;;12.77;6.80;;;10.90;92.30;;;;;;6178247;23;20384;-80
2023/04/09 12:19:12;;;;;;;14.30;7.72;;;10.90;90.70;;;;;;6199857;23;20050;-80
2023/04/09 12:21:51;;;;;;;26.05;11.90;;;11.00;91.90;;;;;;6196655;23;20024;-80
2023/04/09 12:24:21;;;;;;;16.27;9.15;;;11.50;91.90;;;;;;6178008;23;20082;-80
2023/04/09 12:26:49;;;;;;;14.63;7.93;;;11.80;90.50;;;;;;6176302;23;20023;-80
2023/04/09 12:29:18;;;;;;;16.88;9.55;;;11.70;86.80;;;;;;6201788;23;20030;-80
2023/04/09 12:31:46;;;;;;;21.95;11.73;;;11.80;87.50;;;;;;6178064;23;20024;-81
2023/04/09 12:34:13;;;;;;;13.68;8.18;;;12.00;89.20;;;;;;6174918;23;20024;-81
2023/04/09 12:36:40;;;;;;;14.30;7.57;;;11.90;85.80;;;;;;6175846;23;20075;-81
2023/04/09 12:39:08;;;;;;;13.95;7.82;;;11.80;88.10;;;;;;6168421;23;20631;-81
2023/04/09 12:41:36;;;;;;;18.23;9.15;;;11.80;86.70;;;;;;6168595;23;20028;-82
2023/04/09 12:44:03;;;;;;;12.73;7.93;;;11.90;86.90;;;;;;6168390;23;20435;-81
2023/04/09 12:46:31;;;;;;;12.93;7.03;;;12.00;86.30;;;;;;6174293;23;20044;-79
2023/04/09 12:48:58;;;;;;;12.20;7.38;;;12.00;89.70;;;;;;6169030;23;20024;-79
2023/04/09 12:51:25;;;;;;;12.85;7.75;;;11.90;88.40;;;;;;6167320;23;20028;-80
2023/04/09 12:53:52;;;;;;;13.40;8.43;;;11.80;89.90;;;;;;6197705;23;20019;-80